createdAt,value
2024-01-31T00:00:16.167Z,94.10
2024-01-31T00:05:17.256Z,95.18
2024-01-31T00:10:19.278Z,95.33
2024-01-31T00:15:18.241Z,95.75
2024-01-31T00:20:19.246Z,96.64
2024-01-31T00:25:20.438Z,96.75
2024-01-31T00:30:21.308Z,96.75
2024-01-31T00:35:24.234Z,95.12
2024-01-31T00:40:23.230Z,96.16
2024-01-31T00:45:24.278Z,95.79
2024-01-31T00:50:25.216Z,95.94
2024-01-31T00:55:27.183Z,96.67
2024-01-31T01:00:26.296Z,97.03
2024-01-31T01:05:28.166Z,97.65
2024-01-31T01:10:27.260Z,99.32
2024-01-31T01:15:28.105Z,98.92
2024-01-31T01:20:29.257Z,97.35
2024-01-31T01:25:31.190Z,97.50
2024-01-31T01:30:30.228Z,97.92
2024-01-31T01:35:31.254Z,98.44
2024-01-31T01:40:34.152Z,98.55
2024-01-31T01:45:33.013Z,98.44
2024-01-31T01:50:33.899Z,97.77
2024-01-31T01:55:35.981Z,97.67
2024-01-31T02:00:36.063Z,97.46
2024-01-31T02:05:36.073Z,98.29
2024-01-31T02:10:36.078Z,98.08
2024-01-31T02:15:35.214Z,98.08
2024-01-31T02:20:36.196Z,98.50
2024-01-31T02:25:37.174Z,98.08
2024-01-31T02:30:39.121Z,98.08
2024-01-31T02:35:39.014Z,97.98
2024-01-31T02:40:38.409Z,97.71
2024-01-31T02:45:39.007Z,98.23
2024-01-31T02:50:40.129Z,98.38
2024-01-31T02:55:40.802Z,97.97
2024-01-31T03:00:39.742Z,98.55
2024-01-31T03:05:40.876Z,97.97
2024-01-31T03:10:43.214Z,98.28
2024-01-31T03:15:43.070Z,99.01
2024-01-31T03:20:42.146Z,98.55
2024-01-31T03:25:43.310Z,98.49
2024-01-31T03:30:44.689Z,98.49
2024-01-31T03:35:45.727Z,98.85
2024-01-31T03:40:47.634Z,98.95
2024-01-31T03:45:47.492Z,99.37
2024-01-31T03:50:46.597Z,99.37
2024-01-31T03:55:47.638Z,99.22
2024-01-31T04:00:48.581Z,98.80
2024-01-31T04:05:49.533Z,98.90
2024-01-31T04:10:50.453Z,99.26
2024-01-31T04:15:52.411Z,99.89
2024-01-31T04:20:51.332Z,99.99
2024-01-31T04:25:52.397Z,99.07
2024-01-31T04:30:53.249Z,99.27
2024-01-31T04:35:54.205Z,99.07
2024-01-31T04:40:56.088Z,99.22
2024-01-31T04:45:56.055Z,99.53
2024-01-31T04:50:55.070Z,99.37
2024-01-31T04:55:56.010Z,99.89
2024-01-31T05:00:57.050Z,99.99
2024-01-31T05:05:58.013Z,99.89
2024-01-31T05:10:59.028Z,99.68
2024-01-31T05:16:00.229Z,99.68
2024-01-31T05:21:01.417Z,99.41
2024-01-31T05:26:02.339Z,99.99
2024-01-31T05:31:04.283Z,99.98
2024-01-31T05:36:03.407Z,99.99
2024-01-31T05:41:05.274Z,99.99
2024-01-31T05:46:05.204Z,99.99
2024-01-31T05:51:04.222Z,99.99
2024-01-31T05:56:05.227Z,99.99
2024-01-31T06:01:07.496Z,99.99
2024-01-31T06:06:07.711Z,99.99
2024-01-31T06:11:07.618Z,99.99
2024-01-31T06:16:07.563Z,99.99
2024-01-31T06:21:06.493Z,99.99
2024-01-31T06:26:07.418Z,99.99
2024-01-31T06:31:10.291Z,99.99
2024-01-31T06:36:09.134Z,99.99
2024-01-31T06:41:11.061Z,99.99
2024-01-31T06:46:11.155Z,99.99
2024-01-31T06:51:10.353Z,99.96
2024-01-31T06:56:12.238Z,99.99
2024-01-31T07:01:12.332Z,99.99
2024-01-31T07:06:11.293Z,99.99
2024-01-31T07:11:13.311Z,99.99
2024-01-31T07:16:12.423Z,99.99
2024-01-31T07:21:15.126Z,99.99
2024-01-31T07:26:13.885Z,99.99
2024-01-31T07:31:13.829Z,99.99
2024-01-31T07:36:12.762Z,99.59
2024-01-31T07:41:13.881Z,99.33
2024-01-31T07:46:14.919Z,98.92
2024-01-31T07:51:15.994Z,98.08
2024-01-31T07:56:17.899Z,99.02
2024-01-31T08:01:17.914Z,99.08
2024-01-31T08:06:17.063Z,98.20
2024-01-31T08:11:18.092Z,97.47
2024-01-31T08:16:19.052Z,97.85
2024-01-31T08:21:20.228Z,97.47
2024-01-31T08:26:21.266Z,97.74
2024-01-31T08:31:22.257Z,96.86
2024-01-31T08:36:23.408Z,95.47
2024-01-31T08:41:24.338Z,93.87
2024-01-31T08:46:25.380Z,94.74
2024-01-31T08:51:26.325Z,93.93
2024-01-31T08:56:28.355Z,92.11
2024-01-31T09:01:27.492Z,91.39
2024-01-31T09:06:28.458Z,92.53
2024-01-31T09:11:29.490Z,91.52
2024-01-31T09:16:30.472Z,90.97
2024-01-31T09:21:31.492Z,88.34
2024-01-31T09:26:32.520Z,86.60
2024-01-31T09:31:33.479Z,84.36
2024-01-31T09:36:34.472Z,83.45
2024-01-31T09:41:37.420Z,81.10
2024-01-31T09:46:37.981Z,77.80
2024-01-31T09:51:36.962Z,78.31
2024-01-31T09:56:36.938Z,76.53
2024-01-31T10:01:39.926Z,73.91
2024-01-31T10:06:40.882Z,75.18
2024-01-31T10:11:39.933Z,74.84
2024-01-31T10:16:40.970Z,71.03
2024-01-31T10:21:40.923Z,75.35
2024-01-31T10:26:42.848Z,72.88
2024-01-31T10:31:42.334Z,75.46
2024-01-31T10:37:26.757Z,76.42
2024-01-31T10:41:44.361Z,80.82
2024-01-31T10:46:44.016Z,78.83
2024-01-31T10:51:44.993Z,78.11
2024-01-31T10:56:46.050Z,74.88
2024-01-31T11:01:47.114Z,71.51
2024-01-31T11:06:47.128Z,72.81
2024-01-31T11:11:48.114Z,72.72
2024-01-31T11:16:49.088Z,76.21
2024-01-31T11:21:50.097Z,76.04
2024-01-31T11:26:51.104Z,76.25
2024-01-31T11:31:52.025Z,75.94
2024-01-31T11:36:53.070Z,74.95
2024-01-31T11:41:54.040Z,75.04
2024-01-31T11:46:55.051Z,76.90
2024-01-31T11:51:56.248Z,75.93
2024-01-31T11:56:57.290Z,72.47
2024-01-31T12:01:58.195Z,71.75
2024-01-31T12:07:00.718Z,69.87
2024-01-31T12:11:59.938Z,70.08
2024-01-31T12:17:00.842Z,72.78
2024-01-31T12:22:00.982Z,71.69
2024-01-31T12:27:02.116Z,73.54
2024-01-31T12:32:03.197Z,73.30
2024-01-31T12:37:05.196Z,73.19
2024-01-31T12:42:03.284Z,73.30
2024-01-31T12:47:05.763Z,72.89
2024-01-31T12:52:05.737Z,72.65
2024-01-31T12:57:04.899Z,73.98
2024-01-31T13:02:05.901Z,73.47
2024-01-31T13:07:06.985Z,73.06
2024-01-31T13:12:11.960Z,72.10
2024-01-31T13:17:08.019Z,69.74
2024-01-31T13:22:09.031Z,70.87
2024-01-31T13:27:11.050Z,70.40
2024-01-31T13:32:11.270Z,69.65
2024-01-31T13:37:11.240Z,68.49
2024-01-31T13:42:13.071Z,69.41
2024-01-31T13:47:11.323Z,67.05
2024-01-31T13:52:11.284Z,69.85
2024-01-31T13:57:11.317Z,70.29
2024-01-31T14:02:11.224Z,70.97
2024-01-31T14:07:12.236Z,72.20
2024-01-31T14:12:12.264Z,72.89
2024-01-31T14:17:12.297Z,73.74
2024-01-31T14:22:17.231Z,74.40
2024-01-31T14:27:11.200Z,74.63
2024-01-31T14:32:12.345Z,74.33
2024-01-31T14:37:14.416Z,73.95
2024-01-31T14:42:13.420Z,73.95
2024-01-31T14:47:14.367Z,73.95
2024-01-31T14:52:15.339Z,73.74
2024-01-31T14:57:16.409Z,73.85
2024-01-31T15:02:17.365Z,76.25
2024-01-31T15:07:18.566Z,77.66
2024-01-31T15:12:19.645Z,77.59
2024-01-31T15:17:20.626Z,78.62
2024-01-31T15:22:21.666Z,79.27
2024-01-31T15:27:22.733Z,80.65
2024-01-31T15:32:23.762Z,81.37
2024-01-31T15:37:24.755Z,81.27
2024-01-31T15:42:25.878Z,81.89
2024-01-31T15:47:26.907Z,82.96
2024-01-31T15:52:27.906Z,83.37
2024-01-31T15:57:28.843Z,83.48
2024-01-31T16:02:29.871Z,83.68
2024-01-31T16:07:30.898Z,83.78
2024-01-31T16:12:31.836Z,84.30
2024-01-31T16:17:32.921Z,84.13
2024-01-31T16:22:33.903Z,84.44
2024-01-31T16:27:36.738Z,85.10
2024-01-31T16:32:34.994Z,85.52
2024-01-31T16:37:35.987Z,86.03
2024-01-31T16:42:37.059Z,86.38
2024-01-31T16:47:38.113Z,87.15
2024-01-31T16:52:39.045Z,87.76
2024-01-31T16:57:41.481Z,88.49
2024-01-31T17:02:41.193Z,87.66
2024-01-31T17:07:42.232Z,87.56
2024-01-31T17:12:44.670Z,87.70
2024-01-31T17:17:44.183Z,88.32
2024-01-31T17:22:45.300Z,89.61
2024-01-31T17:27:46.319Z,90.02
2024-01-31T17:32:47.318Z,90.44
2024-01-31T17:37:48.392Z,90.37
2024-01-31T17:42:49.584Z,90.47
2024-01-31T17:47:54.260Z,91.72
2024-01-31T17:52:50.616Z,91.20
2024-01-31T17:57:50.786Z,90.37
2024-01-31T18:02:51.809Z,90.29
2024-01-31T18:07:52.929Z,92.68
2024-01-31T18:12:53.911Z,91.64
2024-01-31T18:17:54.946Z,91.47
2024-01-31T18:22:56.858Z,92.30
2024-01-31T18:27:56.969Z,91.41
2024-01-31T18:32:56.002Z,91.62
2024-01-31T18:37:56.916Z,91.41
2024-01-31T18:42:57.912Z,92.55
2024-01-31T18:48:00.169Z,88.59
2024-01-31T18:53:00.261Z,85.47
2024-01-31T18:58:00.258Z,83.05
2024-01-31T19:03:00.707Z,79.77
2024-01-31T19:08:00.655Z,77.98
2024-01-31T19:13:00.611Z,78.08
2024-01-31T19:18:00.372Z,78.11
2024-01-31T19:23:01.484Z,79.15
2024-01-31T19:28:02.491Z,79.70
2024-01-31T19:33:04.452Z,79.91
2024-01-31T19:38:05.377Z,79.91
2024-01-31T19:43:04.519Z,80.32
2024-01-31T19:48:05.840Z,80.32
2024-01-31T19:53:08.161Z,79.60
2024-01-31T19:58:09.326Z,78.01
2024-01-31T20:03:08.539Z,78.98
2024-01-31T20:08:10.795Z,78.56
2024-01-31T20:13:10.253Z,78.98
2024-01-31T20:18:10.630Z,79.43
2024-01-31T20:23:09.889Z,79.33
2024-01-31T20:28:13.055Z,78.05
2024-01-31T20:33:13.438Z,75.60
2024-01-31T20:38:14.562Z,75.39
2024-01-31T20:43:14.841Z,74.22
2024-01-31T20:48:19.902Z,73.57
2024-01-31T20:53:16.219Z,72.64
2024-01-31T20:58:16.343Z,70.41
2024-01-31T21:03:16.669Z,69.96
2024-01-31T21:08:16.850Z,69.04
2024-01-31T21:13:16.897Z,69.04
2024-01-31T21:18:16.840Z,71.26
2024-01-31T21:23:16.701Z,74.46
2024-01-31T21:28:16.594Z,76.70
2024-01-31T21:33:17.586Z,77.91
2024-01-31T21:38:17.470Z,77.91
2024-01-31T21:43:17.327Z,77.70
2024-01-31T21:48:17.503Z,79.85
2024-01-31T21:53:17.347Z,80.57
2024-01-31T21:58:16.363Z,80.92
2024-01-31T22:03:18.388Z,82.65
2024-01-31T22:08:19.281Z,83.63
2024-01-31T22:13:18.174Z,83.84
2024-01-31T22:18:19.397Z,85.05
2024-01-31T22:23:20.341Z,86.19
2024-01-31T22:28:21.234Z,87.27
2024-01-31T22:33:23.380Z,88.25
2024-01-31T22:38:22.292Z,88.56
2024-01-31T22:43:23.193Z,89.39
2024-01-31T22:48:24.339Z,88.56
2024-01-31T22:53:25.526Z,89.29
2024-01-31T22:58:27.502Z,90.47
2024-01-31T23:03:26.960Z,91.41
2024-01-31T23:08:27.021Z,90.47
2024-01-31T23:13:26.995Z,90.16
2024-01-31T23:18:26.171Z,91.66
2024-01-31T23:23:27.216Z,91.77
2024-01-31T23:28:29.178Z,91.91
2024-01-31T23:33:28.211Z,92.74
2024-01-31T23:38:31.172Z,91.97
2024-01-31T23:43:30.091Z,91.66
2024-01-31T23:48:32.114Z,92.43
2024-01-31T23:53:31.126Z,92.64
2024-01-31T23:58:32.050Z,91.96
